Time;durP1;ratioP1;P1;durP2;ratioP2;P2;SDS_P1;SDS_P2;PMS_P1;PMS_P2;Temp;Humidity;BMP_temperature;BMP_pressure;BME280_temperature;BME280_humidity;BME280_pressure;Samples;Min_cycle;Max_cycle;Signal;HPM_P1;HPM_P2
2022/06/16 00:02:21;;;;;;;6.50;6.10;;;19.20;99.90;;;;;;5061161;28;20171;-68
2022/06/16 00:04:47;;;;;;;6.53;5.93;;;19.10;99.90;;;;;;5053028;28;20171;-68
2022/06/16 00:07:15;;;;;;;7.13;6.53;;;19.20;99.90;;;;;;5062995;28;20182;-68
2022/06/16 00:09:40;;;;;;;6.75;6.03;;;19.10;99.90;;;;;;5073087;28;20174;-67
2022/06/16 00:12:06;;;;;;;7.47;6.57;;;19.10;99.90;;;;;;5064630;28;20552;-67
2022/06/16 00:14:32;;;;;;;6.93;5.30;;;19.00;99.90;;;;;;5052700;28;20201;-67
2022/06/16 00:16:58;;;;;;;5.77;5.27;;;19.00;99.90;;;;;;5059585;28;20205;-67
2022/06/16 00:19:24;;;;;;;5.23;4.87;;;18.90;99.90;;;;;;5072809;28;20166;-67
2022/06/16 00:21:49;;;;;;;5.50;5.00;;;18.90;99.90;;;;;;5068006;28;20247;-67
2022/06/16 00:24:15;;;;;;;10.17;5.13;;;18.80;99.90;;;;;;5052605;28;20217;-68
2022/06/16 00:26:41;;;;;;;6.77;5.40;;;18.80;99.90;;;;;;5053870;28;20179;-68
2022/06/16 00:29:06;;;;;;;5.53;5.00;;;18.70;99.90;;;;;;5052826;28;20231;-68
2022/06/16 00:31:35;;;;;;;10.20;5.57;;;18.70;99.90;;;;;;5056175;28;20202;-68
2022/06/16 00:34:01;;;;;;;5.50;5.00;;;18.70;99.90;;;;;;5072253;28;20203;-68
2022/06/16 00:36:26;;;;;;;6.03;5.30;;;18.70;99.90;;;;;;5070869;28;20645;-68
2022/06/16 00:38:52;;;;;;;5.77;5.27;;;18.50;99.90;;;;;;5072832;28;20170;-68
2022/06/16 00:41:18;;;;;;;6.90;5.07;;;18.50;99.90;;;;;;5069809;28;20623;-68
2022/06/16 00:43:43;;;;;;;6.00;5.50;;;18.40;99.90;;;;;;5051677;28;20167;-68
2022/06/16 00:46:13;;;;;;;6.07;5.57;;;18.40;99.90;;;;;;5053069;28;20270;-68
2022/06/16 00:48:44;;;;;;;6.27;5.67;;;18.40;99.90;;;;;;5072386;28;20196;-68
2022/06/16 00:51:20;;;;;;;10.53;5.87;;;18.40;99.90;;;;;;5071656;28;20194;-68
2022/06/16 00:53:46;;;;;;;6.73;6.07;;;18.40;99.90;;;;;;5052092;28;20206;-68
2022/06/16 00:56:16;;;;;;;6.07;5.50;;;18.40;99.90;;;;;;5070284;28;20591;-68
2022/06/16 00:58:46;;;;;;;6.10;5.70;;;18.40;99.90;;;;;;5072292;28;20181;-68
2022/06/16 01:01:13;;;;;;;6.20;5.80;;;18.40;99.90;;;;;;5070393;28;20749;-68
2022/06/16 01:06:27;;;;;;;6.40;5.90;;;18.30;99.90;;;;;;5053475;28;20225;-68
2022/06/16 01:09:11;;;;;;;6.80;6.20;;;18.30;99.90;;;;;;5052084;28;20179;-68
2022/06/16 01:15:25;;;;;;;5.77;5.37;;;18.20;99.90;;;;;;5065583;28;20210;-68
2022/06/16 01:18:10;;;;;;;6.73;5.40;;;18.20;99.90;;;;;;5053157;28;20198;-68
2022/06/16 01:20:47;;;;;;;6.53;5.90;;;18.20;99.90;;;;;;5051718;28;20203;-68
2022/06/16 01:23:48;;;;;;;6.77;6.03;;;18.10;99.90;;;;;;5061310;28;20178;-68
2022/06/16 01:26:41;;;;;;;7.77;5.50;;;18.10;99.90;;;;;;5071942;28;20573;-68
2022/06/16 01:29:30;;;;;;;6.30;5.80;;;18.10;99.90;;;;;;5054909;28;20179;-68
2022/06/16 01:32:01;;;;;;;11.50;5.77;;;18.00;99.90;;;;;;5051906;28;20210;-68
2022/06/16 01:34:30;;;;;;;7.13;5.70;;;18.00;99.90;;;;;;5051924;28;20198;-68
2022/06/16 01:37:30;;;;;;;6.23;5.67;;;18.00;99.90;;;;;;5071643;28;20671;-68
2022/06/16 01:40:09;;;;;;;9.77;5.93;;;18.00;99.90;;;;;;5051670;28;20173;-68
2022/06/16 01:42:56;;;;;;;6.87;6.27;;;18.00;99.90;;;;;;5052970;28;20170;-68
2022/06/16 01:45:30;;;;;;;8.07;6.47;;;17.90;99.90;;;;;;5070600;28;20174;-67
2022/06/16 01:47:57;;;;;;;6.43;5.83;;;17.90;99.90;;;;;;5066844;28;20174;-66
2022/06/16 01:50:30;;;;;;;9.87;6.57;;;17.90;99.90;;;;;;5053737;28;20209;-68
2022/06/16 01:53:05;;;;;;;7.90;7.17;;;17.80;99.90;;;;;;5071426;28;20178;-68
2022/06/16 01:55:36;;;;;;;7.63;6.87;;;17.80;99.90;;;;;;5067672;28;20241;-66
2022/06/16 01:58:07;;;;;;;7.20;6.70;;;17.80;99.90;;;;;;5051366;28;20220;-67
2022/06/16 02:00:34;;;;;;;7.10;6.40;;;17.80;99.90;;;;;;5059735;28;20583;-67
2022/06/16 02:03:10;;;;;;;6.73;6.23;;;17.70;99.90;;;;;;5071300;28;20257;-68
2022/06/16 02:05:48;;;;;;;8.63;5.90;;;17.70;99.90;;;;;;5062091;28;20251;-67
2022/06/16 02:08:19;;;;;;;6.47;5.97;;;17.70;99.90;;;;;;5051299;28;20178;-68
2022/06/16 02:10:49;;;;;;;7.63;6.80;;;17.70;99.90;;;;;;5059981;28;20204;-66
2022/06/16 02:13:20;;;;;;;8.50;5.97;;;17.70;99.90;;;;;;5070976;28;20174;-68
2022/06/16 02:15:49;;;;;;;10.37;6.07;;;17.70;99.90;;;;;;5061892;28;20171;-66
2022/06/16 02:18:30;;;;;;;6.23;5.63;;;17.60;99.90;;;;;;5051122;28;20172;-67
2022/06/16 02:21:14;;;;;;;9.63;6.27;;;17.50;99.90;;;;;;5060608;28;20194;-67
2022/06/16 02:23:41;;;;;;;5.93;5.43;;;17.50;99.90;;;;;;5070749;28;20185;-67
2022/06/16 02:26:07;;;;;;;6.90;6.20;;;17.50;99.90;;;;;;5060124;28;20178;-67
2022/06/16 02:28:43;;;;;;;6.27;5.67;;;17.50;99.90;;;;;;5050960;28;20258;-67
2022/06/16 02:31:30;;;;;;;6.20;5.70;;;17.40;99.90;;;;;;5061086;28;20202;-66
2022/06/16 02:34:04;;;;;;;6.53;6.00;;;17.40;99.90;;;;;;5071003;28;20530;-66
2022/06/16 02:36:51;;;;;;;8.40;5.90;;;17.40;99.90;;;;;;5057884;28;20178;-66
2022/06/16 02:39:31;;;;;;;7.50;6.70;;;17.30;99.90;;;;;;5050917;28;20182;-68
2022/06/16 02:42:39;;;;;;;7.53;5.93;;;17.30;99.90;;;;;;5064965;28;20267;-69
2022/06/16 02:45:28;;;;;;;6.90;6.20;;;17.20;99.90;;;;;;5055186;28;20684;-68
2022/06/16 02:47:58;;;;;;;6.40;5.80;;;17.10;99.90;;;;;;5070281;28;20209;-67
2022/06/16 02:50:37;;;;;;;7.90;6.07;;;17.10;99.90;;;;;;5070669;28;21144;-68
2022/06/16 02:53:21;;;;;;;6.50;5.77;;;17.00;99.90;;;;;;5065794;28;20236;-67
2022/06/16 02:55:52;;;;;;;8.60;6.30;;;17.00;99.90;;;;;;5050988;28;20171;-68
2022/06/16 02:58:21;;;;;;;8.17;6.13;;;17.00;99.90;;;;;;5060662;28;20257;-68
2022/06/16 03:00:52;;;;;;;6.90;6.20;;;16.90;99.90;;;;;;5074475;28;20194;-67
2022/06/16 03:03:26;;;;;;;6.80;6.10;;;16.80;99.90;;;;;;5068534;28;20321;-67
2022/06/16 03:05:54;;;;;;;6.90;6.23;;;16.80;99.90;;;;;;5054515;28;20162;-67
2022/06/16 03:08:22;;;;;;;7.00;6.40;;;16.70;99.90;;;;;;5059658;28;20261;-66
2022/06/16 03:10:51;;;;;;;6.37;5.97;;;16.50;99.90;;;;;;5056443;28;20194;-67
2022/06/16 03:13:18;;;;;;;7.07;5.83;;;16.40;99.90;;;;;;5069541;28;20171;-67
2022/06/16 03:15:43;;;;;;;8.27;6.20;;;16.40;99.90;;;;;;5056217;28;20174;-66
2022/06/16 03:18:09;;;;;;;7.53;6.73;;;16.30;99.90;;;;;;5074498;28;20245;-66
2022/06/16 03:20:35;;;;;;;6.27;5.60;;;16.30;99.90;;;;;;5073081;28;20746;-68
2022/06/16 03:23:00;;;;;;;8.73;6.20;;;16.20;99.90;;;;;;5036166;28;20171;-66
2022/06/16 03:25:26;;;;;;;9.50;6.80;;;16.20;99.90;;;;;;5053674;28;20712;-67
2022/06/16 03:27:52;;;;;;;6.67;6.17;;;16.20;99.90;;;;;;5072898;28;20189;-68
2022/06/16 03:30:17;;;;;;;8.87;6.40;;;16.10;99.90;;;;;;5073761;28;20289;-67
2022/06/16 03:32:43;;;;;;;8.47;6.60;;;16.10;99.90;;;;;;5056526;28;20304;-67
2022/06/16 03:35:09;;;;;;;6.90;5.73;;;16.10;99.90;;;;;;5053477;28;20703;-67
2022/06/16 03:37:34;;;;;;;6.63;6.13;;;16.10;99.90;;;;;;5069111;28;20190;-67
2022/06/16 03:40:00;;;;;;;5.93;5.43;;;16.10;99.90;;;;;;5073798;28;20186;-67
2022/06/16 03:42:27;;;;;;;6.43;5.83;;;16.00;99.90;;;;;;5059495;28;20266;-66
2022/06/16 03:44:52;;;;;;;6.57;6.00;;;16.00;99.90;;;;;;5052939;28;20167;-67
2022/06/16 03:47:18;;;;;;;6.17;5.70;;;16.00;99.90;;;;;;5065558;28;20513;-66
2022/06/16 03:49:44;;;;;;;6.43;5.93;;;16.00;99.90;;;;;;5073547;28;20181;-66
2022/06/16 03:52:09;;;;;;;13.97;5.77;;;16.00;99.90;;;;;;5062871;28;20178;-66
2022/06/16 03:54:35;;;;;;;6.97;6.27;;;15.90;99.90;;;;;;5053084;28;20234;-67
2022/06/16 03:57:01;;;;;;;6.37;5.97;;;16.00;99.90;;;;;;5062024;28;20178;-67
2022/06/16 03:59:27;;;;;;;6.63;6.03;;;16.00;99.90;;;;;;5070699;28;20186;-67
2022/06/16 04:01:52;;;;;;;6.43;5.93;;;16.00;99.90;;;;;;5053351;28;20715;-67
2022/06/16 04:04:18;;;;;;;6.90;6.30;;;16.00;99.90;;;;;;5053378;28;20177;-66
2022/06/16 04:06:44;;;;;;;6.67;5.97;;;16.00;99.90;;;;;;5073467;28;20253;-67
2022/06/16 04:09:09;;;;;;;7.27;6.27;;;16.00;99.90;;;;;;5054743;28;20610;-67
2022/06/16 04:11:35;;;;;;;6.13;5.53;;;16.00;99.90;;;;;;5053868;28;20217;-68
2022/06/16 04:14:08;;;;;;;6.73;6.07;;;16.10;99.90;;;;;;5053609;28;20213;-67
2022/06/16 04:16:37;;;;;;;6.53;5.90;;;16.00;99.90;;;;;;5072714;28;20171;-67
2022/06/16 04:19:03;;;;;;;6.73;5.80;;;16.10;99.90;;;;;;5072168;28;20162;-68
2022/06/16 04:21:29;;;;;;;8.33;6.50;;;16.20;99.90;;;;;;5052769;28;20190;-67
2022/06/16 04:23:56;;;;;;;6.83;6.17;;;16.20;99.90;;;;;;5052750;28;20202;-67
2022/06/16 04:26:21;;;;;;;6.07;5.57;;;16.40;99.90;;;;;;5071935;28;20253;-68
2022/06/16 04:28:47;;;;;;;6.70;5.80;;;16.60;99.90;;;;;;5072946;28;20174;-66
2022/06/16 04:31:13;;;;;;;6.90;6.07;;;16.70;99.90;;;;;;5055213;28;20580;-68
2022/06/16 04:33:39;;;;;;;8.00;7.40;;;16.80;99.90;;;;;;5034384;28;20209;-67
2022/06/16 04:36:05;;;;;;;7.03;6.30;;;16.90;99.90;;;;;;5068509;28;20594;-67
2022/06/16 04:38:31;;;;;;;8.03;7.10;;;17.10;99.90;;;;;;5072588;28;20223;-67
2022/06/16 04:40:58;;;;;;;6.60;5.97;;;17.30;99.90;;;;;;5058058;28;20289;-68
2022/06/16 04:43:25;;;;;;;7.07;5.47;;;17.40;99.90;;;;;;5064287;28;20185;-68
2022/06/16 04:45:51;;;;;;;9.03;5.87;;;17.50;99.90;;;;;;5072719;28;20249;-68
2022/06/16 04:48:16;;;;;;;7.13;6.30;;;17.70;99.90;;;;;;5061436;28;20768;-68
2022/06/16 04:50:42;;;;;;;6.30;5.80;;;17.80;99.90;;;;;;5034457;28;20720;-68
2022/06/16 04:53:08;;;;;;;8.00;5.63;;;18.00;99.90;;;;;;5061301;28;20541;-68
2022/06/16 04:55:34;;;;;;;6.80;4.90;;;18.20;99.90;;;;;;5071759;28;20205;-68
2022/06/16 04:58:01;;;;;;;5.27;4.80;;;18.30;99.90;;;;;;5064712;28;20252;-68
2022/06/16 05:00:26;;;;;;;5.97;5.50;;;18.50;99.90;;;;;;5052121;28;20182;-68
2022/06/16 05:02:52;;;;;;;5.73;5.00;;;18.60;99.90;;;;;;5057911;28;20185;-68
2022/06/16 05:05:18;;;;;;;5.70;5.20;;;18.70;99.90;;;;;;5053858;28;20216;-68
2022/06/16 05:07:44;;;;;;;6.00;5.60;;;18.80;99.90;;;;;;5067725;28;20179;-68
2022/06/16 05:10:10;;;;;;;9.33;6.07;;;19.10;99.90;;;;;;5052030;28;20191;-68
2022/06/16 05:12:36;;;;;;;8.83;5.43;;;19.30;99.90;;;;;;5054315;28;20270;-68
2022/06/16 05:15:01;;;;;;;6.47;5.30;;;19.30;99.90;;;;;;5053757;28;20297;-68
2022/06/16 05:17:27;;;;;;;7.37;5.40;;;19.40;99.90;;;;;;5070722;28;20202;-68
2022/06/16 05:19:53;;;;;;;6.00;5.45;;;19.50;99.90;;;;;;5051127;28;20626;-66
2022/06/16 05:22:18;;;;;;;6.20;5.60;;;19.60;99.90;;;;;;5051829;28;20163;-68
2022/06/16 05:24:44;;;;;;;9.55;5.63;;;19.80;99.90;;;;;;5070279;28;20657;-68
2022/06/16 05:27:09;;;;;;;5.78;5.10;;;20.10;99.90;;;;;;5071765;28;20197;-66
2022/06/16 05:29:35;;;;;;;5.97;4.95;;;20.00;99.90;;;;;;5069827;28;20190;-66
2022/06/16 05:32:01;;;;;;;5.50;5.10;;;19.90;99.90;;;;;;5071602;28;20583;-66
2022/06/16 05:34:26;;;;;;;6.13;5.53;;;19.90;99.90;;;;;;5055556;28;20565;-66
2022/06/16 05:36:52;;;;;;;5.43;5.03;;;20.10;99.90;;;;;;5033740;28;20638;-66
2022/06/16 05:39:17;;;;;;;6.75;5.55;;;20.30;99.90;;;;;;5065012;28;20204;-66
2022/06/16 05:41:45;;;;;;;5.43;5.03;;;20.20;99.90;;;;;;5071629;28;20200;-66
2022/06/16 05:44:11;;;;;;;6.28;5.05;;;20.20;99.90;;;;;;5056054;28;20681;-66
2022/06/16 05:46:37;;;;;;;5.95;5.43;;;20.10;99.90;;;;;;5033564;28;20175;-66
2022/06/16 05:49:04;;;;;;;5.18;4.78;;;20.20;99.90;;;;;;5045847;28;20178;-66
2022/06/16 05:51:30;;;;;;;6.07;5.32;;;20.50;99.90;;;;;;5071335;28;20204;-66
2022/06/16 05:53:55;;;;;;;5.72;4.90;;;20.40;99.90;;;;;;5060432;28;20194;-66
2022/06/16 05:56:21;;;;;;;7.03;5.95;;;20.30;99.90;;;;;;5051287;28;20220;-66
2022/06/16 05:58:47;;;;;;;6.38;5.78;;;20.40;99.90;;;;;;5051836;28;20166;-66
2022/06/16 06:01:13;;;;;;;4.72;4.38;;;20.60;99.90;;;;;;5052692;28;20194;-66
2022/06/16 06:03:41;;;;;;;6.13;5.53;;;20.90;99.90;;;;;;5070968;28;20166;-66
2022/06/16 06:06:07;;;;;;;6.10;5.60;;;21.10;99.90;;;;;;5051114;28;20230;-65
2022/06/16 06:16:54;;;;;;;5.35;4.95;;;21.10;99.90;;;;;;5051229;28;20169;-65
2022/06/16 06:19:23;;;;;;;8.18;4.45;;;21.30;99.90;;;;;;5051938;28;20255;-68
2022/06/16 06:21:58;;;;;;;5.30;4.90;;;21.70;99.90;;;;;;5050999;28;20194;-65
2022/06/16 06:24:26;;;;;;;5.30;4.80;;;22.10;99.90;;;;;;5050626;28;20522;-65
2022/06/16 06:26:53;;;;;;;5.55;4.55;;;22.30;99.90;;;;;;5051177;28;20174;-65
2022/06/16 06:29:19;;;;;;;5.18;4.50;;;22.40;99.90;;;;;;5052609;28;20179;-66
2022/06/16 06:31:45;;;;;;;5.78;4.78;;;22.80;99.90;;;;;;5072784;28;20553;-65
2022/06/16 06:34:10;;;;;;;4.85;4.45;;;23.00;99.90;;;;;;5074615;28;20189;-66
2022/06/16 06:36:36;;;;;;;4.20;3.85;;;23.10;99.90;;;;;;5054950;28;20171;-66
2022/06/16 06:39:02;;;;;;;5.97;4.30;;;23.60;99.90;;;;;;5037263;28;20175;-66
2022/06/16 06:41:27;;;;;;;4.68;4.25;;;23.90;99.90;;;;;;5054529;28;20194;-68
2022/06/16 06:43:54;;;;;;;6.63;4.65;;;23.90;99.90;;;;;;5036640;28;20178;-65
2022/06/16 06:46:19;;;;;;;4.30;3.90;;;23.70;99.90;;;;;;5066897;28;20174;-68
2022/06/16 06:48:45;;;;;;;5.55;4.40;;;23.80;99.90;;;;;;5074728;28;20257;-66
2022/06/16 06:51:11;;;;;;;8.32;3.78;;;23.80;99.90;;;;;;5074606;28;20596;-65
2022/06/16 06:53:36;;;;;;;4.82;4.10;;;24.10;99.90;;;;;;5073076;28;20186;-65
2022/06/16 06:56:02;;;;;;;6.13;4.20;;;24.30;99.90;;;;;;5074139;28;20577;-65
2022/06/16 06:58:33;;;;;;;4.32;3.92;;;24.50;99.90;;;;;;5056439;28;20170;-66
2022/06/16 07:01:01;;;;;;;5.40;4.90;;;24.50;99.90;;;;;;5072890;28;20197;-66
2022/06/16 07:03:28;;;;;;;9.35;4.18;;;24.10;99.90;;;;;;5073894;28;20194;-66
2022/06/16 07:05:54;;;;;;;5.45;4.15;;;23.70;99.90;;;;;;5064200;28;20231;-65
2022/06/16 07:08:21;;;;;;;4.63;3.90;;;23.50;99.90;;;;;;5036327;28;20273;-65
2022/06/16 07:10:46;;;;;;;4.65;4.25;;;23.70;99.90;;;;;;5055562;28;20194;-68
2022/06/16 07:13:12;;;;;;;5.07;4.10;;;23.60;99.90;;;;;;5054401;28;20167;-65
2022/06/16 07:15:37;;;;;;;5.32;4.28;;;24.00;99.90;;;;;;5073764;28;20368;-66
2022/06/16 07:18:05;;;;;;;4.03;3.83;;;24.20;99.90;;;;;;5056568;28;20221;-66
2022/06/16 07:20:31;;;;;;;5.55;3.92;;;24.50;99.90;;;;;;5055396;28;20297;-66
2022/06/16 07:22:57;;;;;;;3.92;3.53;;;24.40;99.90;;;;;;5054103;28;20253;-66
2022/06/16 07:25:22;;;;;;;5.53;4.38;;;24.40;99.90;;;;;;5067529;28;20619;-65
2022/06/16 07:27:48;;;;;;;4.70;4.25;;;24.80;99.90;;;;;;5071749;28;20886;-67
2022/06/16 07:30:17;;;;;;;4.43;4.03;;;24.90;99.90;;;;;;5062570;28;20210;-66
2022/06/16 07:32:44;;;;;;;5.43;3.92;;;24.80;99.90;;;;;;5073317;28;20539;-66
2022/06/16 07:35:13;;;;;;;4.30;3.90;;;24.90;99.90;;;;;;5073555;28;20646;-66
2022/06/16 07:37:39;;;;;;;5.25;4.03;;;25.40;99.90;;;;;;5052917;28;20166;-66
2022/06/16 07:40:06;;;;;;;5.65;4.75;;;25.50;99.90;;;;;;5054094;28;20191;-66
2022/06/16 07:42:33;;;;;;;4.32;3.85;;;25.90;99.90;;;;;;5062874;28;20178;-67
2022/06/16 07:44:59;;;;;;;5.05;4.47;;;26.00;99.90;;;;;;5073160;28;20638;-67
2022/06/16 07:47:26;;;;;;;4.68;3.90;;;26.30;99.90;;;;;;5064359;28;20191;-66
2022/06/16 07:49:51;;;;;;;6.10;4.38;;;26.50;99.90;;;;;;5054233;28;20200;-68
2022/06/16 07:52:17;;;;;;;5.40;4.07;;;26.70;99.90;;;;;;5061473;28;20538;-66
2022/06/16 07:54:43;;;;;;;4.35;3.92;;;26.90;99.90;;;;;;5073449;28;20213;-67
2022/06/16 07:57:10;;;;;;;4.70;4.30;;;27.10;99.90;;;;;;5063526;28;20589;-66
2022/06/16 07:59:36;;;;;;;4.88;4.43;;;26.80;99.90;;;;;;5065541;28;20501;-66
2022/06/16 08:02:02;;;;;;;4.75;4.35;;;26.40;99.90;;;;;;5064650;28;20205;-65
2022/06/16 08:04:31;;;;;;;4.20;3.50;;;26.10;99.90;;;;;;5034994;28;20179;-67
2022/06/16 08:07:00;;;;;;;4.80;4.03;;;26.20;99.90;;;;;;5060664;28;20710;-67
2022/06/16 08:09:27;;;;;;;5.28;3.90;;;26.40;99.90;;;;;;5072079;28;20201;-67
2022/06/16 08:12:07;;;;;;;4.10;3.78;;;26.50;99.90;;;;;;5073083;28;20197;-68
2022/06/16 08:14:37;;;;;;;4.57;3.95;;;26.30;99.90;;;;;;5070836;28;20190;-67
2022/06/16 08:17:12;;;;;;;5.18;3.92;;;26.40;99.90;;;;;;5073322;28;20524;-67
2022/06/16 08:19:39;;;;;;;5.05;3.88;;;26.80;99.90;;;;;;5064316;28;20693;-67
2022/06/16 08:22:06;;;;;;;5.55;3.85;;;26.70;99.90;;;;;;5052769;28;20250;-66
2022/06/16 08:24:31;;;;;;;5.18;4.03;;;26.70;99.90;;;;;;5058846;28;20178;-66
2022/06/16 08:26:59;;;;;;;5.22;3.67;;;26.80;99.90;;;;;;5072521;28;20179;-66
2022/06/16 08:29:25;;;;;;;4.97;3.75;;;27.30;99.90;;;;;;5067382;28;20179;-66
2022/06/16 08:31:51;;;;;;;4.80;3.92;;;27.30;99.90;;;;;;5034930;28;20713;-66
2022/06/16 08:34:17;;;;;;;5.57;4.07;;;27.30;99.90;;;;;;5055893;28;20248;-66
2022/06/16 08:36:42;;;;;;;4.25;3.70;;;27.70;99.90;;;;;;5073120;28;20201;-67
2022/06/16 08:39:09;;;;;;;5.15;3.65;;;27.60;99.90;;;;;;5053006;28;20542;-68
2022/06/16 08:41:49;;;;;;;4.50;4.03;;;27.60;99.90;;;;;;5052941;28;20375;-68
2022/06/16 08:44:29;;;;;;;3.90;3.40;;;27.80;99.90;;;;;;5051929;28;20187;-67
2022/06/16 08:47:18;;;;;;;5.13;3.55;;;28.20;99.90;;;;;;5053912;28;20186;-65
2022/06/16 08:50:13;;;;;;;4.32;3.55;;;28.40;99.90;;;;;;5058997;28;20556;-68
2022/06/16 08:52:45;;;;;;;4.22;3.38;;;28.60;99.90;;;;;;5065486;28;20190;-68
2022/06/16 08:55:16;;;;;;;3.60;3.17;;;28.40;99.90;;;;;;5052218;28;20211;-67
2022/06/16 08:57:56;;;;;;;3.85;3.53;;;28.80;99.90;;;;;;5058782;28;20180;-68
2022/06/16 09:00:58;;;;;;;5.03;3.88;;;29.20;99.90;;;;;;5051940;28;20664;-67
2022/06/16 09:03:39;;;;;;;3.50;3.17;;;29.20;99.90;;;;;;5053915;28;20221;-68
2022/06/16 09:06:24;;;;;;;3.97;3.63;;;29.50;99.90;;;;;;5067797;28;20399;-67
2022/06/16 09:09:05;;;;;;;6.75;3.60;;;29.30;99.90;;;;;;5056135;28;20185;-68
2022/06/16 09:12:10;;;;;;;3.88;3.55;;;28.50;99.90;;;;;;5059039;28;20480;-68
2022/06/16 09:15:11;;;;;;;5.63;3.33;;;28.60;99.90;;;;;;5053465;28;20225;-67
2022/06/16 09:17:49;;;;;;;3.60;3.30;;;28.50;99.90;;;;;;5055781;28;20189;-67
2022/06/16 09:20:42;;;;;;;4.22;3.53;;;28.30;99.90;;;;;;5050775;28;20673;-68
2022/06/16 09:23:08;;;;;;;3.75;2.97;;;28.10;99.90;;;;;;5044549;28;20195;-66
2022/06/16 09:25:57;;;;;;;3.70;3.40;;;28.40;99.40;;;;;;5051536;28;20170;-66
2022/06/16 09:28:35;;;;;;;3.95;3.65;;;28.10;99.90;;;;;;5051795;28;20182;-67
2022/06/16 09:31:06;;;;;;;4.68;3.13;;;28.10;99.90;;;;;;5033792;28;20213;-68
2022/06/16 09:33:36;;;;;;;4.28;3.28;;;28.20;99.90;;;;;;5063357;28;20276;-66
2022/06/16 09:36:28;;;;;;;2.95;2.72;;;28.40;99.90;;;;;;5033532;28;20263;-67
2022/06/16 09:39:03;;;;;;;2.92;2.72;;;28.70;99.50;;;;;;5044262;28;20277;-68
2022/06/16 09:44:50;;;;;;;3.08;2.75;;;30.10;97.70;;;;;;5050480;28;20186;-67
2022/06/16 09:47:22;;;;;;;3.88;3.08;;;29.60;96.50;;;;;;5059848;28;20178;-67
2022/06/16 09:49:57;;;;;;;3.40;3.10;;;29.10;98.10;;;;;;5071357;28;20182;-66
2022/06/16 09:52:39;;;;;;;3.83;3.10;;;28.90;96.40;;;;;;5062228;28;20229;-67
2022/06/16 09:55:18;;;;;;;3.60;3.22;;;28.40;96.90;;;;;;5050845;28;20210;-67
2022/06/16 09:57:46;;;;;;;7.45;3.38;;;28.30;96.90;;;;;;5071403;28;20641;-67
2022/06/16 10:00:16;;;;;;;3.35;3.05;;;28.70;96.30;;;;;;5070797;28;20194;-67
2022/06/16 10:02:54;;;;;;;2.85;2.65;;;29.00;95.70;;;;;;5051173;28;20578;-67
2022/06/16 10:05:31;;;;;;;6.13;3.78;;;28.50;95.90;;;;;;5058671;28;20182;-67
2022/06/16 10:08:26;;;;;;;3.50;3.17;;;28.00;98.10;;;;;;5051906;28;20190;-67
2022/06/16 10:11:02;;;;;;;3.95;3.63;;;27.90;97.30;;;;;;5037004;28;20639;-67
2022/06/16 10:13:43;;;;;;;3.40;3.10;;;27.70;96.70;;;;;;5071246;28;20255;-67
2022/06/16 10:16:15;;;;;;;3.58;3.28;;;28.20;96.90;;;;;;5065443;28;20184;-67
2022/06/16 10:18:42;;;;;;;4.05;3.45;;;28.50;96.10;;;;;;5051586;28;20178;-66
2022/06/16 10:21:09;;;;;;;3.90;3.22;;;28.30;96.60;;;;;;5056560;28;20186;-67
2022/06/16 10:23:43;;;;;;;3.95;3.47;;;28.60;96.50;;;;;;5070835;28;20174;-66
2022/06/16 10:26:09;;;;;;;4.72;3.80;;;28.60;94.80;;;;;;5066186;28;20178;-67
2022/06/16 10:28:50;;;;;;;4.30;3.90;;;28.50;96.30;;;;;;5053341;28;20175;-66
2022/06/16 10:31:34;;;;;;;3.28;2.97;;;28.40;95.50;;;;;;5086664;22;20256;-66
2022/06/16 10:34:01;;;;;;;3.55;3.13;;;28.90;96.60;;;;;;5050525;28;20252;-65
2022/06/16 10:36:27;;;;;;;3.35;3.05;;;29.10;95.70;;;;;;5050835;28;20258;-64
2022/06/16 10:39:15;;;;;;;5.10;3.30;;;29.40;95.40;;;;;;5050735;28;20254;-66
2022/06/16 10:42:12;;;;;;;3.30;3.00;;;29.30;95.30;;;;;;5050759;28;20273;-64
2022/06/16 10:44:38;;;;;;;3.78;2.95;;;29.00;95.40;;;;;;5027055;28;20203;-65
2022/06/16 10:47:07;;;;;;;3.40;3.15;;;29.20;94.20;;;;;;5034757;28;20204;-65
2022/06/16 10:49:39;;;;;;;3.42;3.00;;;29.00;94.60;;;;;;5019821;28;20179;-65
2022/06/16 10:52:11;;;;;;;3.13;2.92;;;29.00;93.60;;;;;;5016796;28;20326;-66
2022/06/16 10:54:44;;;;;;;3.92;3.42;;;29.30;94.70;;;;;;5050554;28;20221;-66
2022/06/16 10:57:15;;;;;;;3.78;3.45;;;29.50;94.90;;;;;;5036160;28;20178;-67
2022/06/16 10:59:48;;;;;;;3.00;2.70;;;29.70;95.50;;;;;;5030825;28;20207;-64
2022/06/16 11:02:22;;;;;;;4.10;2.90;;;29.90;93.90;;;;;;5030832;28;20247;-66
2022/06/16 11:05:03;;;;;;;6.65;3.90;;;30.00;94.20;;;;;;5034691;28;20178;-65
2022/06/16 11:07:39;;;;;;;3.30;3.05;;;29.90;95.40;;;;;;5042693;28;20258;-66
2022/06/16 11:10:27;;;;;;;4.15;3.08;;;30.10;93.60;;;;;;5044325;28;20183;-66
2022/06/16 11:12:53;;;;;;;3.80;3.50;;;30.10;93.20;;;;;;5050886;28;20180;-66
2022/06/16 11:15:29;;;;;;;3.17;2.92;;;30.00;93.10;;;;;;5035063;28;20211;-65
2022/06/16 11:18:00;;;;;;;4.15;3.08;;;29.60;91.60;;;;;;5031554;28;20225;-66
2022/06/16 11:20:39;;;;;;;3.60;3.20;;;29.30;91.90;;;;;;5035465;28;20652;-66
2022/06/16 11:23:24;;;;;;;3.15;2.85;;;29.50;94.00;;;;;;5034372;28;20164;-66
2022/06/16 11:26:24;;;;;;;4.72;2.92;;;29.80;91.70;;;;;;5051896;28;20174;-65
2022/06/16 11:28:56;;;;;;;3.75;3.00;;;30.00;92.00;;;;;;5053328;28;20220;-66
2022/06/16 11:31:25;;;;;;;3.15;2.70;;;30.10;92.00;;;;;;5033907;28;20246;-64
2022/06/16 11:34:14;;;;;;;2.95;2.75;;;30.10;92.40;;;;;;5033763;28;20167;-66
2022/06/16 11:37:08;;;;;;;3.30;3.00;;;30.10;93.10;;;;;;5053897;28;20186;-65
2022/06/16 11:39:46;;;;;;;3.20;2.97;;;29.90;91.90;;;;;;5048248;28;20704;-66
2022/06/16 11:42:54;;;;;;;4.90;3.30;;;29.70;94.40;;;;;;5034045;28;20191;-66
2022/06/16 11:45:32;;;;;;;3.50;2.85;;;29.30;91.30;;;;;;5036247;28;20195;-66
2022/06/16 11:48:26;;;;;;;6.93;2.90;;;29.60;92.50;;;;;;5053833;28;20181;-67
2022/06/16 11:50:59;;;;;;;3.75;3.10;;;29.80;91.00;;;;;;5001163;28;20699;-65
2022/06/16 11:53:50;;;;;;;3.03;2.72;;;29.60;92.00;;;;;;5017097;28;20262;-67
2022/06/16 11:56:33;;;;;;;3.55;2.97;;;29.90;90.00;;;;;;5031512;28;20237;-64
2022/06/16 11:59:18;;;;;;;4.18;2.67;;;30.10;92.90;;;;;;5036567;28;20685;-66
2022/06/16 12:01:46;;;;;;;2.95;2.63;;;30.20;93.10;;;;;;5053834;28;20198;-66
2022/06/16 12:04:30;;;;;;;3.10;2.80;;;29.80;90.00;;;;;;5034352;28;20184;-65
2022/06/16 12:07:07;;;;;;;3.20;2.92;;;29.70;93.00;;;;;;5033981;28;20179;-66
2022/06/16 12:09:55;;;;;;;2.97;2.80;;;29.20;91.00;;;;;;5053104;28;20553;-66
2022/06/16 12:12:32;;;;;;;2.90;2.70;;;29.40;92.80;;;;;;5049736;28;20207;-65
2022/06/16 12:15:35;;;;;;;4.95;2.80;;;29.70;91.60;;;;;;5032998;28;20666;-66
2022/06/16 12:18:14;;;;;;;2.78;2.67;;;29.70;92.90;;;;;;5041263;28;20179;-65
2022/06/16 12:21:17;;;;;;;3.20;2.90;;;30.00;93.00;;;;;;5053013;28;20187;-66
2022/06/16 12:24:01;;;;;;;3.60;3.28;;;30.30;91.90;;;;;;5038371;28;20588;-66
2022/06/16 12:26:53;;;;;;;3.42;3.13;;;30.10;91.40;;;;;;5033121;28;20176;-65
2022/06/16 12:29:27;;;;;;;3.17;2.88;;;29.70;88.70;;;;;;4996420;28;20585;-66
2022/06/16 12:32:10;;;;;;;2.88;2.65;;;29.60;92.90;;;;;;5044486;28;20249;-66
2022/06/16 12:34:48;;;;;;;3.53;2.85;;;29.50;91.30;;;;;;5052492;28;20212;-65
2022/06/16 12:37:20;;;;;;;3.33;3.03;;;29.40;91.50;;;;;;5032896;28;20656;-65
2022/06/16 12:40:13;;;;;;;3.83;2.90;;;29.50;91.40;;;;;;5033164;28;20171;-65
2022/06/16 12:42:52;;;;;;;2.63;2.50;;;30.00;93.50;;;;;;5013020;28;20184;-65
2022/06/16 12:45:30;;;;;;;3.05;2.85;;;30.10;90.30;;;;;;5017619;28;20179;-65
2022/06/16 12:48:01;;;;;;;3.13;2.90;;;30.10;92.50;;;;;;5052763;28;20233;-65
2022/06/16 12:50:33;;;;;;;3.65;2.58;;;30.10;90.10;;;;;;5049212;28;20191;-65
2022/06/16 12:53:06;;;;;;;3.63;2.70;;;30.30;92.10;;;;;;5032939;28;20179;-65
2022/06/16 12:55:46;;;;;;;3.17;2.97;;;30.50;91.10;;;;;;5035331;28;20198;-65
2022/06/16 12:58:31;;;;;;;3.38;3.13;;;30.60;93.40;;;;;;5050728;28;20167;-66
2022/06/16 13:01:08;;;;;;;4.03;3.00;;;30.30;88.60;;;;;;5032539;28;20193;-65
2022/06/16 13:03:46;;;;;;;3.05;2.85;;;30.30;90.00;;;;;;5035899;28;20177;-66
2022/06/16 13:06:13;;;;;;;3.30;3.00;;;30.10;90.00;;;;;;5052319;28;20171;-67
2022/06/16 13:08:45;;;;;;;3.05;2.85;;;29.90;86.20;;;;;;5035181;28;20209;-66
2022/06/16 13:11:18;;;;;;;2.80;2.60;;;30.00;92.80;;;;;;5032491;28;20188;-66
2022/06/16 13:13:55;;;;;;;3.50;3.20;;;30.40;94.30;;;;;;5041977;28;20729;-66
2022/06/16 13:16:26;;;;;;;2.50;2.40;;;30.70;89.10;;;;;;5052197;28;20170;-66
2022/06/16 13:19:09;;;;;;;4.63;2.80;;;30.70;90.30;;;;;;5034393;28;20217;-66
2022/06/16 13:21:48;;;;;;;4.70;2.70;;;31.20;90.10;;;;;;5032093;28;20270;-66
2022/06/16 13:24:35;;;;;;;3.75;3.35;;;31.20;90.90;;;;;;5052167;28;20185;-67
2022/06/16 13:27:10;;;;;;;3.00;2.80;;;31.30;88.30;;;;;;5044514;28;20186;-66
2022/06/16 13:29:57;;;;;;;3.40;3.10;;;31.20;90.40;;;;;;5032167;28;20258;-67
2022/06/16 13:32:42;;;;;;;3.67;2.85;;;30.90;88.60;;;;;;5034091;28;20230;-67